Terminal Aerodrome Forecast
Issued by NWS North Platte, NE

Home | Current Version | Previous Version | Graphics & Text | Print | Product List | Glossary On
Versions: 1 2 3 4 5 6 7 8 9 10 11 12 13 14 15 16 17 18 19 20 21 22 23 24 25 26 27 28
000
FTUS43 KLBF 040500
TAFVTN
TAF
KVTN 040520Z 0406/0506 05010KT P6SM BKN200
     FM041200 05010KT P6SM SCT120 BKN200
     FM041500 08011KT P6SM BKN120 OVC200
     FM050000 10011KT P6SM -SHRA OVC050=

USA.gov is the U.S. government's official web portal to all federal, state and local government web resources and services.